Moneta, Wyoming
Current Conditions -  °F | °C
As of 4:53 PM on Friday 31 Oct 2014 (Local Time) from KCPR Reporting Station
Clear Clear  
Wind Chill: 67°   Ceiling: Unl
Heat Index: 67°   Visibility: 10mi
Dew Point: 22°   Wind: 5mph
Humidity: 18%   Direction: 210°SSW
Pressure: 29.95"   Gusts: NA
Location:  42.8668°N, 106.312°W
Report Text: KCPR 312253Z 21004KT 10SM CLR 19/M06 A2995 RMK AO2 SLP125 T01941056
Loading
Personal Weather Stations






























Interactive Weather Map
Tropical Storm Tracking
New forecast layout! Learn more

10-Day Weather Forecast

Advertisements
Track Severe Weather on mobile